Grimes, Iowa
Current Conditions -  °F | °C
As of 5:55 PM on Monday 22 Dec 2014 (Local Time) from KIKV Reporting Station
Unknown Precip Unknown Precip  
Wind Chill: 33°   Ceiling: 400
Heat Index: 39°   Visibility: 2.5mi
Dew Point: 39°   Wind: 9mph
Humidity: 100%   Direction: 120°ESE
Pressure: 29.47"   Gusts: NA
Location:  41.69°N, 93.79°W
Report Text: KIKV 222355Z AUTO 12008KT 2 1/2SM -UP OVC004 04/04 A2947 RMK AO2 P0002
Loading
Personal Weather Stations






























Interactive Weather Map New forecast layout! Learn more

10-Day Weather Forecast

Advertisements
Track Severe Weather on mobile